»·PEaware :: N495LM KSNA-KCRQ

N495LM :: KSNA-KCRQ

FLIGHT INFORMATION

Flight Status: Arrived
Operator: Privately registered:
United States
More flights under this callsign
Pilot: Alex C. (14758)
Aircraft: SOCATA TBM-850
(TBM8)
More flights by this aircraft type
Origin: KSNA John Wayne-Orange Co
United States
Destination: KCRQ McClellan-Palomar
United States
More flights between these airports :: More routes between these airports
Route: +V25 PACIF V208 OCN
File this flight plan on PilotEdge
Remarks:
Altitude:
(Current/Filed)
7,000ft
Speed:
(Current/Filed)
0kts
Departed: 05-Jan-18 05:39 PM
Arrived: 05-Jan-18 06:33 PM
Distance/Time
Traveled:
44nm/0:54
Distance/Time
To Go:
Arrived

Flight Plot

Page will automatically refresh every two minutes.


Map Options




Map Legend


Flown Route
Filed Route
Departure Airport
Arrival Airport
Navaid (VOR, NDB)
Fix

Horizontal Profiles

Position Reports

Time Latitude Longitude Heading Altitude Ground
Speed
05-Jan-18 17:35 33.681071 -117.861224 118 59ft 0kts
05-Jan-18 17:36 33.681071 -117.861224 118 59ft 0kts
05-Jan-18 17:37 33.681071 -117.861224 118 59ft 0kts
05-Jan-18 17:38 33.681071 -117.861224 118 59ft 0kts
05-Jan-18 17:39 33.681071 -117.861224 118 59ft 0kts
05-Jan-18 17:40 33.681071 -117.861224 118 59ft 0kts
05-Jan-18 17:41 33.680954 -117.861210 227 59ft 6kts
05-Jan-18 17:42 33.680524 -117.862757 275 59ft 10kts
05-Jan-18 17:43 33.680671 -117.863122 298 59ft 0kts
05-Jan-18 17:44 33.680786 -117.863529 269 59ft 16kts
05-Jan-18 17:45 33.673963 -117.868161 209 212ft 92kts
05-Jan-18 17:46 33.657862 -117.873342 185 968ft 123kts
05-Jan-18 17:47 33.636588 -117.875509 186 2141ft 132kts
05-Jan-18 17:48 33.611104 -117.878049 186 3623ft 133kts
05-Jan-18 17:49 33.582612 -117.880610 182 5205ft 135kts
05-Jan-18 17:50 33.555450 -117.869238 162 6728ft 141kts
05-Jan-18 17:51 33.521372 -117.853845 161 7021ft 209kts
05-Jan-18 17:52 33.475333 -117.833031 161 7003ft 226kts
05-Jan-18 17:53 33.430153 -117.812685 161 7003ft 228kts
05-Jan-18 17:54 33.381287 -117.790681 162 7002ft 230kts
05-Jan-18 17:55 33.345712 -117.774735 162 7003ft 231kts
05-Jan-18 17:56 33.323417 -117.764762 162 7003ft 232kts
05-Jan-18 17:57 33.296696 -117.752235 151 6983ft 235kts
05-Jan-18 17:58 33.283040 -117.717919 103 6994ft 240kts
05-Jan-18 17:59 33.276049 -117.678747 101 6991ft 242kts
05-Jan-18 18:00 33.269520 -117.637997 100 6991ft 243kts
05-Jan-18 18:01 33.262571 -117.592884 100 6991ft 243kts
05-Jan-18 18:02 33.256911 -117.550681 98 6769ft 237kts
05-Jan-18 18:03 33.252070 -117.510973 99 6449ft 228kts
05-Jan-18 18:04 33.247780 -117.475774 99 6159ft 223kts
05-Jan-18 18:05 33.243707 -117.442280 99 5861ft 205kts
05-Jan-18 18:06 33.240032 -117.414039 100 5573ft 187kts
05-Jan-18 18:07 33.236712 -117.389944 101 5310ft 174kts
05-Jan-18 18:08 33.233736 -117.368182 101 5064ft 167kts
05-Jan-18 18:09 33.230808 -117.346697 101 4872ft 159kts
05-Jan-18 18:10 33.228076 -117.326681 101 4754ft 141kts
05-Jan-18 18:11 33.225588 -117.308871 101 4546ft 138kts
05-Jan-18 18:12 33.223163 -117.291835 101 4351ft 138kts
05-Jan-18 18:13 33.220721 -117.275010 100 4123ft 137kts
05-Jan-18 18:14 33.223694 -117.258181 71 3983ft 128kts
05-Jan-18 18:15 33.228280 -117.241833 71 3979ft 110kts
05-Jan-18 18:16 33.232330 -117.227445 71 3993ft 113kts
05-Jan-18 18:17 33.236622 -117.212240 71 4002ft 112kts
05-Jan-18 18:18 33.241236 -117.196226 71 4029ft 125kts
05-Jan-18 18:19 33.247261 -117.175025 70 3963ft 153kts
05-Jan-18 18:20 33.253713 -117.152238 71 4024ft 158kts
05-Jan-18 18:21 33.253434 -117.126492 121 4031ft 158kts
05-Jan-18 18:22 33.242450 -117.103352 121 4027ft 161kts
05-Jan-18 18:23 33.229989 -117.080387 147 4011ft 160kts
05-Jan-18 18:24 33.208961 -117.070178 161 4023ft 156kts
05-Jan-18 18:25 33.188080 -117.062723 191 4007ft 149kts
05-Jan-18 18:26 33.175179 -117.077987 241 3797ft 144kts
05-Jan-18 18:27 33.167032 -117.095258 241 3602ft 122kts
05-Jan-18 18:28 33.160626 -117.108996 241 3329ft 113kts
05-Jan-18 18:29 33.155059 -117.120939 241 3083ft 110kts
05-Jan-18 18:30 33.151794 -117.133964 258 2830ft 108kts
05-Jan-18 18:31 33.149598 -117.147723 259 2581ft 107kts
05-Jan-18 18:32 33.147580 -117.160297 259 2352ft 105kts
05-Jan-18 18:33 33.145603 -117.172607 258 2133ft 104kts
05-Jan-18 18:34 33.142771 -117.190148 258 1824ft 104kts
05-Jan-18 18:35 33.140263 -117.205807 259 1602ft 94kts
05-Jan-18 18:36 33.136532 -117.228875 258 1147ft 89kts
05-Jan-18 18:37 33.132988 -117.250788 258 761ft 87kts
05-Jan-18 18:38 33.129780 -117.270784 259 414ft 84kts
05-Jan-18 18:39 33.127445 -117.280142 234 334ft 0kts
05-Jan-18 18:40 33.126933 -117.281145 173 334ft 12kts
05-Jan-18 18:41 33.126675 -117.280799 78 334ft 0kts
05-Jan-18 18:42 33.126675 -117.280799 78 334ft 0kts

Navigation Log

Ident Type
1. KSNA Airport
2. PACIF Fix
3. HUBRD Fix
4. OCN Navaid
5. KCRQ Airport